sensor_id;sensor_type;location;lat;lon;timestamp;pressure;altitude;pressure_sealevel;temperature;humidity
34370;BME280;20635;55.812;37.560;2022-11-15T00:01:53;100062.03;;;24.14;31.43
34370;BME280;20635;55.812;37.560;2022-11-15T00:04:37;100069.63;;;24.14;31.31
34370;BME280;20635;55.812;37.560;2022-11-15T00:07:21;100061.22;;;24.14;31.36
34370;BME280;20635;55.812;37.560;2022-11-15T00:10:06;100064.84;;;24.14;31.26
34370;BME280;20635;55.812;37.560;2022-11-15T00:12:51;100057.25;;;24.15;31.39
34370;BME280;20635;55.812;37.560;2022-11-15T00:15:36;100071.25;;;24.15;31.44
34370;BME280;20635;55.812;37.560;2022-11-15T00:18:21;100048.88;;;24.15;31.31
34370;BME280;20635;55.812;37.560;2022-11-15T00:21:15;100056.94;;;24.16;31.36
34370;BME280;20635;55.812;37.560;2022-11-15T00:24:00;100051.66;;;24.15;31.02
34370;BME280;20635;55.812;37.560;2022-11-15T00:26:44;100044.09;;;24.15;31.26
34370;BME280;20635;55.812;37.560;2022-11-15T00:29:28;100046.88;;;24.15;31.13
34370;BME280;20635;55.812;37.560;2022-11-15T00:32:13;100045.25;;;24.14;31.29
34370;BME280;20635;55.812;37.560;2022-11-15T00:34:57;100040.47;;;24.15;31.12
34370;BME280;20635;55.812;37.560;2022-11-15T00:37:41;100035.69;;;24.15;31.36
34370;BME280;20635;55.812;37.560;2022-11-15T00:40:26;100043.78;;;24.17;31.06
34370;BME280;20635;55.812;37.560;2022-11-15T00:43:10;100035.41;;;24.17;31.16
34370;BME280;20635;55.812;37.560;2022-11-15T00:45:55;100033.72;;;24.16;31.25
34370;BME280;20635;55.812;37.560;2022-11-15T00:48:39;100023.34;;;24.16;31.16
34370;BME280;20635;55.812;37.560;2022-11-15T00:51:24;100023.34;;;24.16;31.22
34370;BME280;20635;55.812;37.560;2022-11-15T00:54:08;100022.50;;;24.16;31.00
34370;BME280;20635;55.812;37.560;2022-11-15T00:56:52;100014.13;;;24.16;31.23
34370;BME280;20635;55.812;37.560;2022-11-15T00:59:37;100010.50;;;24.15;31.18
34370;BME280;20635;55.812;37.560;2022-11-15T01:02:21;100014.94;;;24.16;31.07
34370;BME280;20635;55.812;37.560;2022-11-15T01:05:07;100017.44;;;24.18;30.95
34370;BME280;20635;55.812;37.560;2022-11-15T01:07:52;100015.78;;;24.17;31.43
34370;BME280;20635;55.812;37.560;2022-11-15T01:10:36;100001.78;;;24.17;31.44
34370;BME280;20635;55.812;37.560;2022-11-15T01:13:21;100005.72;;;24.16;31.23
34370;BME280;20635;55.812;37.560;2022-11-15T01:16:10;100000.63;;;24.18;31.04
34370;BME280;20635;55.812;37.560;2022-11-15T01:18:56;100001.47;;;24.18;31.24
34370;BME280;20635;55.812;37.560;2022-11-15T01:21:40;99999.00;;;24.17;31.04
34370;BME280;20635;55.812;37.560;2022-11-15T01:24:24;99995.03;;;24.18;31.22
34370;BME280;20635;55.812;37.560;2022-11-15T01:27:08;99987.78;;;24.17;31.00
34370;BME280;20635;55.812;37.560;2022-11-15T01:29:53;99981.88;;;24.18;31.21
34370;BME280;20635;55.812;37.560;2022-11-15T01:32:37;99981.03;;;24.18;31.09
34370;BME280;20635;55.812;37.560;2022-11-15T01:35:21;99985.00;;;24.17;31.29
34370;BME280;20635;55.812;37.560;2022-11-15T01:38:06;99984.66;;;24.18;31.23
34370;BME280;20635;55.812;37.560;2022-11-15T01:40:51;99984.66;;;24.18;31.31
34370;BME280;20635;55.812;37.560;2022-11-15T01:43:36;99983.00;;;24.17;31.24
34370;BME280;20635;55.812;37.560;2022-11-15T01:46:30;99987.47;;;24.18;31.33
34370;BME280;20635;55.812;37.560;2022-11-15T01:49:19;99988.28;;;24.19;31.19
34370;BME280;20635;55.812;37.560;2022-11-15T01:52:13;99977.09;;;24.19;31.11
34370;BME280;20635;55.812;37.560;2022-11-15T01:55:02;99975.44;;;24.18;30.90
34370;BME280;20635;55.812;37.560;2022-11-15T01:57:50;99975.09;;;24.19;31.17
34370;BME280;20635;55.812;37.560;2022-11-15T02:00:37;99984.66;;;24.18;31.25
34370;BME280;20635;55.812;37.560;2022-11-15T02:03:23;99991.09;;;24.19;31.15
34370;BME280;20635;55.812;37.560;2022-11-15T02:06:10;99979.88;;;24.19;31.19
34370;BME280;20635;55.812;37.560;2022-11-15T02:08:55;99981.88;;;24.18;31.28
34370;BME280;20635;55.812;37.560;2022-11-15T02:11:40;99985.47;;;24.19;31.10
34370;BME280;20635;55.812;37.560;2022-11-15T02:14:26;99982.69;;;24.19;30.97
34370;BME280;20635;55.812;37.560;2022-11-15T02:27:15;99973.13;;;24.20;30.96
34370;BME280;20635;55.812;37.560;2022-11-15T02:36:35;99972.19;;;24.24;31.08
34370;BME280;20635;55.812;37.560;2022-11-15T02:39:34;99963.91;;;24.19;31.06
34370;BME280;20635;55.812;37.560;2022-11-15T02:42:29;99969.72;;;24.23;31.04
34370;BME280;20635;55.812;37.560;2022-11-15T02:45:39;99964.44;;;24.21;31.15
34370;BME280;20635;55.812;37.560;2022-11-15T02:48:26;99964.44;;;24.21;30.96
34370;BME280;20635;55.812;37.560;2022-11-15T02:51:12;99961.94;;;24.20;30.80
34370;BME280;20635;55.812;37.560;2022-11-15T02:53:57;99961.94;;;24.20;31.12
34370;BME280;20635;55.812;37.560;2022-11-15T02:56:45;99961.63;;;24.21;30.99
34370;BME280;20635;55.812;37.560;2022-11-15T03:11:59;99940.25;;;24.25;30.91
34370;BME280;20635;55.812;37.560;2022-11-15T03:14:56;99934.66;;;24.25;30.82
34370;BME280;20635;55.812;37.560;2022-11-15T03:18:06;99938.28;;;24.26;31.08
34370;BME280;20635;55.812;37.560;2022-11-15T03:20:55;99931.94;;;24.20;30.88
34370;BME280;20635;55.812;37.560;2022-11-15T03:23:43;99933.63;;;24.21;30.84
34370;BME280;20635;55.812;37.560;2022-11-15T03:26:28;99939.53;;;24.20;30.84
34370;BME280;20635;55.812;37.560;2022-11-15T03:29:18;99935.56;;;24.21;31.03
34370;BME280;20635;55.812;37.560;2022-11-15T03:32:10;99941.69;;;24.23;30.84
34370;BME280;20635;55.812;37.560;2022-11-15T03:38:15;99929.06;;;24.25;30.95
34370;BME280;20635;55.812;37.560;2022-11-15T03:41:04;99937.75;;;24.24;30.85
34370;BME280;20635;55.812;37.560;2022-11-15T03:43:56;99936.09;;;24.23;30.73
34370;BME280;20635;55.812;37.560;2022-11-15T03:50:01;99933.78;;;24.25;30.83
34370;BME280;20635;55.812;37.560;2022-11-15T03:52:48;99936.59;;;24.25;30.79
34370;BME280;20635;55.812;37.560;2022-11-15T03:55:33;99931.84;;;24.25;30.94
34370;BME280;20635;55.812;37.560;2022-11-15T03:58:17;99920.94;;;24.24;30.69
34370;BME280;20635;55.812;37.560;2022-11-15T04:01:02;99928.53;;;24.23;30.97
34370;BME280;20635;55.812;37.560;2022-11-15T04:03:46;99933.50;;;24.26;30.87
34370;BME280;20635;55.812;37.560;2022-11-15T04:06:31;99922.59;;;24.25;30.85
34370;BME280;20635;55.812;37.560;2022-11-15T04:09:15;99916.69;;;24.26;30.91
34370;BME280;20635;55.812;37.560;2022-11-15T04:11:59;99922.28;;;24.26;30.82
34370;BME280;20635;55.812;37.560;2022-11-15T04:14:43;99920.31;;;24.27;30.80
34370;BME280;20635;55.812;37.560;2022-11-15T04:17:52;99909.94;;;24.27;30.87
34370;BME280;20635;55.812;37.560;2022-11-15T04:20:37;99909.13;;;24.27;30.86
34370;BME280;20635;55.812;37.560;2022-11-15T04:23:39;99915.53;;;24.27;30.83
34370;BME280;20635;55.812;37.560;2022-11-15T04:26:50;99916.38;;;24.28;30.63
34370;BME280;20635;55.812;37.560;2022-11-15T04:29:34;99913.06;;;24.26;30.87
34370;BME280;20635;55.812;37.560;2022-11-15T04:32:19;99913.56;;;24.28;30.48
34370;BME280;20635;55.812;37.560;2022-11-15T04:35:04;99906.81;;;24.29;30.84
34370;BME280;20635;55.812;37.560;2022-11-15T04:37:48;99895.13;;;24.27;30.71
34370;BME280;20635;55.812;37.560;2022-11-15T04:40:33;99904.00;;;24.29;30.86
34370;BME280;20635;55.812;37.560;2022-11-15T04:43:18;99901.22;;;24.29;30.63
34370;BME280;20635;55.812;37.560;2022-11-15T04:46:02;99904.84;;;24.29;30.71
34370;BME280;20635;55.812;37.560;2022-11-15T04:48:47;99889.19;;;24.28;30.73
34370;BME280;20635;55.812;37.560;2022-11-15T04:51:31;99888.03;;;24.29;30.78
34370;BME280;20635;55.812;37.560;2022-11-15T04:54:16;99887.53;;;24.27;30.69
34370;BME280;20635;55.812;37.560;2022-11-15T04:57:00;99885.56;;;24.28;30.46
34370;BME280;20635;55.812;37.560;2022-11-15T04:59:45;99892.81;;;24.29;30.67
34370;BME280;20635;55.812;37.560;2022-11-15T05:02:30;99887.22;;;24.29;30.64
34370;BME280;20635;55.812;37.560;2022-11-15T05:05:34;99888.03;;;24.29;30.50
34370;BME280;20635;55.812;37.560;2022-11-15T05:08:18;99896.44;;;24.29;30.67
34370;BME280;20635;55.812;37.560;2022-11-15T05:11:03;99887.22;;;24.29;30.74
34370;BME280;20635;55.812;37.560;2022-11-15T05:13:47;99887.22;;;24.29;30.41
34370;BME280;20635;55.812;37.560;2022-11-15T05:16:31;99882.44;;;24.29;30.61
34370;BME280;20635;55.812;37.560;2022-11-15T05:19:16;99888.03;;;24.29;30.84
34370;BME280;20635;55.812;37.560;2022-11-15T05:22:00;99881.59;;;24.29;30.83
34370;BME280;20635;55.812;37.560;2022-11-15T05:24:44;99877.69;;;24.30;30.68
34370;BME280;20635;55.812;37.560;2022-11-15T05:27:28;99870.41;;;24.29;30.70
34370;BME280;20635;55.812;37.560;2022-11-15T05:30:13;99875.19;;;24.28;30.92
34370;BME280;20635;55.812;37.560;2022-11-15T05:32:58;99862.00;;;24.29;30.67
34370;BME280;20635;55.812;37.560;2022-11-15T05:35:46;99875.38;;;24.32;30.66
34370;BME280;20635;55.812;37.560;2022-11-15T05:38:33;99872.91;;;24.30;30.58
34370;BME280;20635;55.812;37.560;2022-11-15T05:41:22;99878.50;;;24.30;30.51
34370;BME280;20635;55.812;37.560;2022-11-15T05:44:10;99870.09;;;24.30;30.41
34370;BME280;20635;55.812;37.560;2022-11-15T05:46:56;99874.88;;;24.30;30.49
34370;BME280;20635;55.812;37.560;2022-11-15T05:49:42;99867.31;;;24.30;30.51
34370;BME280;20635;55.812;37.560;2022-11-15T05:52:31;99860.88;;;24.30;30.52
34370;BME280;20635;55.812;37.560;2022-11-15T05:55:17;99857.22;;;24.29;30.57
34370;BME280;20635;55.812;37.560;2022-11-15T05:58:02;99856.91;;;24.31;30.42
34370;BME280;20635;55.812;37.560;2022-11-15T06:00:46;99857.75;;;24.32;30.52
34370;BME280;20635;55.812;37.560;2022-11-15T06:03:31;99859.72;;;24.31;30.43
34370;BME280;20635;55.812;37.560;2022-11-15T06:06:15;99853.28;;;24.30;30.76
34370;BME280;20635;55.812;37.560;2022-11-15T06:09:00;99855.28;;;24.30;30.43
34370;BME280;20635;55.812;37.560;2022-11-15T06:11:44;99846.88;;;24.30;30.48
34370;BME280;20635;55.812;37.560;2022-11-15T06:14:28;99843.22;;;24.29;30.50
34370;BME280;20635;55.812;37.560;2022-11-15T06:17:13;99845.72;;;24.31;30.49
34370;BME280;20635;55.812;37.560;2022-11-15T06:19:58;99840.13;;;24.31;30.58
34370;BME280;20635;55.812;37.560;2022-11-15T06:22:42;99838.47;;;24.30;30.50
34370;BME280;20635;55.812;37.560;2022-11-15T06:25:27;99840.94;;;24.32;30.39
34370;BME280;20635;55.812;37.560;2022-11-15T06:28:12;99836.50;;;24.30;30.49
34370;BME280;20635;55.812;37.560;2022-11-15T06:31:02;99836.97;;;24.33;30.43
34370;BME280;20635;55.812;37.560;2022-11-15T06:33:47;99827.28;;;24.30;30.61
34370;BME280;20635;55.812;37.560;2022-11-15T06:36:36;99838.97;;;24.32;30.51
34370;BME280;20635;55.812;37.560;2022-11-15T06:39:21;99824.13;;;24.32;30.40
34370;BME280;20635;55.812;37.560;2022-11-15T06:42:07;99829.75;;;24.32;30.13
34370;BME280;20635;55.812;37.560;2022-11-15T06:44:52;99828.91;;;24.31;30.53
34370;BME280;20635;55.812;37.560;2022-11-15T06:47:44;99820.19;;;24.33;30.44
34370;BME280;20635;55.812;37.560;2022-11-15T06:50:29;99817.72;;;24.31;30.42
34370;BME280;20635;55.812;37.560;2022-11-15T06:53:14;99814.91;;;24.31;30.51
34370;BME280;20635;55.812;37.560;2022-11-15T06:56:07;99817.72;;;24.31;30.32
34370;BME280;20635;55.812;37.560;2022-11-15T06:58:51;99810.13;;;24.32;30.52
34370;BME280;20635;55.812;37.560;2022-11-15T07:01:35;99810.47;;;24.30;30.47
34370;BME280;20635;55.812;37.560;2022-11-15T07:04:20;99806.50;;;24.31;30.40
34370;BME280;20635;55.812;37.560;2022-11-15T07:07:04;99795.31;;;24.31;30.60
34370;BME280;20635;55.812;37.560;2022-11-15T07:09:48;99793.31;;;24.32;30.63
34370;BME280;20635;55.812;37.560;2022-11-15T07:12:33;99789.72;;;24.31;30.43
34370;BME280;20635;55.812;37.560;2022-11-15T07:15:19;99791.34;;;24.32;30.42
34370;BME280;20635;55.812;37.560;2022-11-15T07:18:04;99793.31;;;24.32;30.56
34370;BME280;20635;55.812;37.560;2022-11-15T07:20:48;99785.75;;;24.32;30.46
34370;BME280;20635;55.812;37.560;2022-11-15T07:23:32;99782.13;;;24.32;30.39
34370;BME280;20635;55.812;37.560;2022-11-15T07:26:17;99781.78;;;24.33;30.44
34370;BME280;20635;55.812;37.560;2022-11-15T07:29:01;99785.75;;;24.32;30.37
34370;BME280;20635;55.812;37.560;2022-11-15T07:31:46;99780.16;;;24.32;30.42
34370;BME280;20635;55.812;37.560;2022-11-15T07:34:30;99778.16;;;24.33;30.61
34370;BME280;20635;55.812;37.560;2022-11-15T07:37:14;99773.72;;;24.32;30.46
34370;BME280;20635;55.812;37.560;2022-11-15T07:39:58;99766.97;;;24.33;30.58
34370;BME280;20635;55.812;37.560;2022-11-15T07:42:42;99762.53;;;24.32;30.43
34370;BME280;20635;55.812;37.560;2022-11-15T07:45:44;99754.59;;;24.34;30.17
34370;BME280;20635;55.812;37.560;2022-11-15T07:48:29;99766.16;;;24.32;30.49
34370;BME280;20635;55.812;37.560;2022-11-15T07:51:15;99756.59;;;24.33;30.46
34370;BME280;20635;55.812;37.560;2022-11-15T07:54:00;99752.16;;;24.32;30.25
34370;BME280;20635;55.812;37.560;2022-11-15T07:56:44;99759.38;;;24.33;30.36
34370;BME280;20635;55.812;37.560;2022-11-15T07:59:29;99752.97;;;24.33;30.38
34370;BME280;20635;55.812;37.560;2022-11-15T08:02:14;99756.59;;;24.33;30.39
34370;BME280;20635;55.812;37.560;2022-11-15T08:05:01;99762.53;;;24.32;30.23
34370;BME280;20635;55.812;37.560;2022-11-15T08:07:46;99763.00;;;24.34;30.27
34370;BME280;20635;55.812;37.560;2022-11-15T08:10:31;99759.38;;;24.33;30.45
34370;BME280;20635;55.812;37.560;2022-11-15T08:13:15;99753.78;;;24.33;30.38
34370;BME280;20635;55.812;37.560;2022-11-15T08:16:01;99758.22;;;24.34;30.13
34370;BME280;20635;55.812;37.560;2022-11-15T08:18:46;99760.22;;;24.34;30.40
34370;BME280;20635;55.812;37.560;2022-11-15T08:21:30;99747.38;;;24.33;30.59
34370;BME280;20635;55.812;37.560;2022-11-15T08:24:15;99743.41;;;24.34;30.50
34370;BME280;20635;55.812;37.560;2022-11-15T08:26:59;99736.16;;;24.33;30.44
34370;BME280;20635;55.812;37.560;2022-11-15T08:29:44;99740.59;;;24.34;30.41
34370;BME280;20635;55.812;37.560;2022-11-15T08:32:30;99743.41;;;24.34;30.25
34370;BME280;20635;55.812;37.560;2022-11-15T08:35:15;99739.78;;;24.33;30.25
34370;BME280;20635;55.812;37.560;2022-11-15T08:38:00;99725.78;;;24.33;30.59
34370;BME280;20635;55.812;37.560;2022-11-15T08:40:44;99726.59;;;24.34;30.35
34370;BME280;20635;55.812;37.560;2022-11-15T08:43:28;99724.63;;;24.34;30.41
34370;BME280;20635;55.812;37.560;2022-11-15T08:46:13;99722.97;;;24.33;30.10
34370;BME280;20635;55.812;37.560;2022-11-15T08:48:58;99733.03;;;24.34;30.27
34370;BME280;20635;55.812;37.560;2022-11-15T08:51:42;99724.63;;;24.34;30.47
34370;BME280;20635;55.812;37.560;2022-11-15T08:54:26;99716.56;;;24.33;30.22
34370;BME280;20635;55.812;37.560;2022-11-15T08:57:11;99713.41;;;24.34;30.09
34370;BME280;20635;55.812;37.560;2022-11-15T08:59:56;99713.41;;;24.34;30.39
34370;BME280;20635;55.812;37.560;2022-11-15T09:02:41;99715.41;;;24.34;30.41
34370;BME280;20635;55.812;37.560;2022-11-15T09:05:26;99707.81;;;24.34;30.23
34370;BME280;20635;55.812;37.560;2022-11-15T09:08:10;99711.47;;;24.35;30.42
34370;BME280;20635;55.812;37.560;2022-11-15T09:10:57;99706.69;;;24.35;30.47
34370;BME280;20635;55.812;37.560;2022-11-15T09:13:41;99701.41;;;24.34;30.39
34370;BME280;20635;55.812;37.560;2022-11-15T09:16:26;99691.34;;;24.33;30.29
34370;BME280;20635;55.812;37.560;2022-11-15T09:19:10;99686.56;;;24.33;30.43
34370;BME280;20635;55.812;37.560;2022-11-15T09:21:54;99689.38;;;24.33;30.34
34370;BME280;20635;55.812;37.560;2022-11-15T09:24:50;99686.56;;;24.33;30.30
34370;BME280;20635;55.812;37.560;2022-11-15T09:27:34;99683.78;;;24.33;30.40
34370;BME280;20635;55.812;37.560;2022-11-15T09:30:18;99681.78;;;24.34;30.23
34370;BME280;20635;55.812;37.560;2022-11-15T09:33:08;99675.38;;;24.33;30.12
34370;BME280;20635;55.812;37.560;2022-11-15T09:35:53;99674.22;;;24.34;30.40
34370;BME280;20635;55.812;37.560;2022-11-15T09:38:38;99672.56;;;24.33;30.15
34370;BME280;20635;55.812;37.560;2022-11-15T09:50:44;99674.41;;;24.38;30.38
34370;BME280;20635;55.812;37.560;2022-11-15T09:53:47;99673.09;;;24.35;30.45
34370;BME280;20635;55.812;37.560;2022-11-15T09:56:22;99666.31;;;24.36;30.08
34370;BME280;20635;55.812;37.560;2022-11-15T10:03:59;99664.16;;;24.33;30.42
34370;BME280;20635;55.812;37.560;2022-11-15T10:06:26;99666.97;;;24.33;30.36
34370;BME280;20635;55.812;37.560;2022-11-15T10:09:06;99657.94;;;24.36;30.32
34370;BME280;20635;55.812;37.560;2022-11-15T10:11:37;99654.59;;;24.34;30.19
34370;BME280;20635;55.812;37.560;2022-11-15T10:14:17;99652.31;;;24.36;30.44
34370;BME280;20635;55.812;37.560;2022-11-15T10:22:28;99625.16;;;24.37;30.26
34370;BME280;20635;55.812;37.560;2022-11-15T10:25:21;99624.00;;;24.38;30.24
34370;BME280;20635;55.812;37.560;2022-11-15T10:27:56;99613.13;;;24.36;30.27
34370;BME280;20635;55.812;37.560;2022-11-15T10:30:23;99617.38;;;24.34;30.28
34370;BME280;20635;55.812;37.560;2022-11-15T10:32:55;99615.41;;;24.34;30.11
34370;BME280;20635;55.812;37.560;2022-11-15T10:35:27;99615.91;;;24.36;30.26
34370;BME280;20635;55.812;37.560;2022-11-15T10:38:05;99616.75;;;24.37;30.16
34370;BME280;20635;55.812;37.560;2022-11-15T10:40:32;99615.09;;;24.36;30.15
34370;BME280;20635;55.812;37.560;2022-11-15T10:43:17;99614.44;;;24.39;30.36
34370;BME280;20635;55.812;37.560;2022-11-15T10:45:45;99607.84;;;24.35;30.30
34370;BME280;20635;55.812;37.560;2022-11-15T10:50:45;99604.19;;;24.34;30.16
34370;BME280;20635;55.812;37.560;2022-11-15T10:53:22;99592.69;;;24.36;30.15
34370;BME280;20635;55.812;37.560;2022-11-15T10:55:50;99592.19;;;24.34;30.16
34370;BME280;20635;55.812;37.560;2022-11-15T10:58:32;99589.88;;;24.36;30.21
34370;BME280;20635;55.812;37.560;2022-11-15T11:01:12;99580.53;;;24.40;30.23
34370;BME280;20635;55.812;37.560;2022-11-15T11:03:39;99580.34;;;24.37;30.15
34370;BME280;20635;55.812;37.560;2022-11-15T11:06:14;99579.50;;;24.36;30.14
34370;BME280;20635;55.812;37.560;2022-11-15T11:08:58;99569.16;;;24.37;30.13
34370;BME280;20635;55.812;37.560;2022-11-15T11:11:25;99566.66;;;24.35;30.24
34370;BME280;20635;55.812;37.560;2022-11-15T11:14:34;99568.31;;;24.36;30.13
34370;BME280;20635;55.812;37.560;2022-11-15T11:19:54;99567.78;;;24.34;30.19
34370;BME280;20635;55.812;37.560;2022-11-15T11:22:30;99567.47;;;24.36;30.03
34370;BME280;20635;55.812;37.560;2022-11-15T11:25:30;99569.16;;;24.37;30.09
34370;BME280;20635;55.812;37.560;2022-11-15T11:37:09;99547.56;;;24.37;30.19
34370;BME280;20635;55.812;37.560;2022-11-15T11:42:42;99539.47;;;24.36;30.01
34370;BME280;20635;55.812;37.560;2022-11-15T11:48:52;99536.69;;;24.36;29.93
34370;BME280;20635;55.812;37.560;2022-11-15T11:51:01;99533.06;;;24.35;30.16
34370;BME280;20635;55.812;37.560;2022-11-15T11:53:33;99531.38;;;24.34;30.20
34370;BME280;20635;55.812;37.560;2022-11-15T11:56:16;99524.97;;;24.34;30.16
34370;BME280;20635;55.812;37.560;2022-11-15T11:58:45;99527.75;;;24.34;30.00
34370;BME280;20635;55.812;37.560;2022-11-15T12:17:18;99516.25;;;24.35;30.14
34370;BME280;20635;55.812;37.560;2022-11-15T12:19:46;99506.19;;;24.34;29.99
34370;BME280;20635;55.812;37.560;2022-11-15T12:22:19;99508.97;;;24.34;30.13
34370;BME280;20635;55.812;37.560;2022-11-15T12:29:48;99504.75;;;24.37;30.36
34370;BME280;20635;55.812;37.560;2022-11-15T12:32:36;99499.63;;;24.39;30.12
34370;BME280;20635;55.812;37.560;2022-11-15T12:35:05;99497.78;;;24.34;30.25
34370;BME280;20635;55.812;37.560;2022-11-15T12:43:05;99496.00;;;24.38;30.20
34370;BME280;20635;55.812;37.560;2022-11-15T12:45:49;99493.03;;;24.35;30.15
34370;BME280;20635;55.812;37.560;2022-11-15T12:51:07;99487.59;;;24.38;30.17
34370;BME280;20635;55.812;37.560;2022-11-15T12:53:33;99486.94;;;24.41;30.12
34370;BME280;20635;55.812;37.560;2022-11-15T12:58:44;99475.06;;;24.36;30.00
34370;BME280;20635;55.812;37.560;2022-11-15T13:06:45;99463.03;;;24.35;30.29
34370;BME280;20635;55.812;37.560;2022-11-15T13:11:57;99449.03;;;24.35;30.08
34370;BME280;20635;55.812;37.560;2022-11-15T13:14:44;99445.59;;;24.38;30.34
34370;BME280;20635;55.812;37.560;2022-11-15T13:17:35;99445.59;;;24.38;30.32
34370;BME280;20635;55.812;37.560;2022-11-15T13:30:48;99431.41;;;24.35;30.27
34370;BME280;20635;55.812;37.560;2022-11-15T13:33:16;99425.81;;;24.35;30.10
34370;BME280;20635;55.812;37.560;2022-11-15T13:35:46;99423.84;;;24.35;30.18
34370;BME280;20635;55.812;37.560;2022-11-15T13:40:55;99427.16;;;24.37;30.01
34370;BME280;20635;55.812;37.560;2022-11-15T13:46:06;99422.06;;;24.39;30.14
34370;BME280;20635;55.812;37.560;2022-11-15T13:48:33;99413.47;;;24.36;30.43
34370;BME280;20635;55.812;37.560;2022-11-15T13:51:10;99413.13;;;24.37;30.33
34370;BME280;20635;55.812;37.560;2022-11-15T13:53:42;99412.31;;;24.37;30.22
34370;BME280;20635;55.812;37.560;2022-11-15T13:56:13;99414.28;;;24.36;30.08
34370;BME280;20635;55.812;37.560;2022-11-15T13:58:41;99407.53;;;24.37;30.12
34370;BME280;20635;55.812;37.560;2022-11-15T14:01:08;99400.28;;;24.36;30.14
34370;BME280;20635;55.812;37.560;2022-11-15T14:03:49;99396.84;;;24.39;30.17
34370;BME280;20635;55.812;37.560;2022-11-15T14:06:19;99405.56;;;24.38;30.06
34370;BME280;20635;55.812;37.560;2022-11-15T14:09:37;99402.91;;;24.41;30.30
34370;BME280;20635;55.812;37.560;2022-11-15T14:12:20;99400.78;;;24.38;30.15
34370;BME280;20635;55.812;37.560;2022-11-15T14:14:47;99394.34;;;24.38;30.13
34370;BME280;20635;55.812;37.560;2022-11-15T14:19:56;99393.53;;;24.37;30.40
34370;BME280;20635;55.812;37.560;2022-11-15T14:22:28;99399.66;;;24.39;30.20
34370;BME280;20635;55.812;37.560;2022-11-15T14:25:15;99389.75;;;24.42;30.45
34370;BME280;20635;55.812;37.560;2022-11-15T14:27:43;99384.78;;;24.39;30.43
34370;BME280;20635;55.812;37.560;2022-11-15T14:30:16;99383.66;;;24.40;30.31
34370;BME280;20635;55.812;37.560;2022-11-15T14:32:48;99382.84;;;24.39;30.22
34370;BME280;20635;55.812;37.560;2022-11-15T14:35:21;99386.28;;;24.45;30.20
34370;BME280;20635;55.812;37.560;2022-11-15T14:37:48;99381.69;;;24.40;30.14
34370;BME280;20635;55.812;37.560;2022-11-15T14:40:20;99385.31;;;24.41;30.16
34370;BME280;20635;55.812;37.560;2022-11-15T14:42:46;99375.91;;;24.45;30.12
34370;BME280;20635;55.812;37.560;2022-11-15T14:45:18;99376.56;;;24.42;30.33
34370;BME280;20635;55.812;37.560;2022-11-15T14:47:44;99369.13;;;24.46;30.22
34370;BME280;20635;55.812;37.560;2022-11-15T14:50:17;99357.28;;;24.41;30.25
34370;BME280;20635;55.812;37.560;2022-11-15T14:52:44;99358.78;;;24.38;30.25
34370;BME280;20635;55.812;37.560;2022-11-15T14:55:22;99364.53;;;24.42;30.17
34370;BME280;20635;55.812;37.560;2022-11-15T14:57:49;99350.38;;;24.38;30.16
34370;BME280;20635;55.812;37.560;2022-11-15T15:00:16;99357.13;;;24.37;30.16
34370;BME280;20635;55.812;37.560;2022-11-15T15:02:43;99349.56;;;24.38;30.38
34370;BME280;20635;55.812;37.560;2022-11-15T15:05:42;99358.13;;;24.41;30.50
34370;BME280;20635;55.812;37.560;2022-11-15T15:08:09;99344.78;;;24.38;30.20
34370;BME280;20635;55.812;37.560;2022-11-15T15:10:45;99354.50;;;24.41;30.33
34370;BME280;20635;55.812;37.560;2022-11-15T15:13:19;99343.63;;;24.39;30.24
34370;BME280;20635;55.812;37.560;2022-11-15T15:15:45;99348.38;;;24.39;30.37
34370;BME280;20635;55.812;37.560;2022-11-15T15:18:11;99339.16;;;24.38;30.37
34370;BME280;20635;55.812;37.560;2022-11-15T15:20:39;99334.38;;;24.39;30.50
34370;BME280;20635;55.812;37.560;2022-11-15T15:23:18;99334.06;;;24.40;30.25
34370;BME280;20635;55.812;37.560;2022-11-15T15:25:45;99336.06;;;24.40;30.30
34370;BME280;20635;55.812;37.560;2022-11-15T15:28:12;99327.97;;;24.38;30.40
34370;BME280;20635;55.812;37.560;2022-11-15T15:30:38;99325.97;;;24.39;30.55
34370;BME280;20635;55.812;37.560;2022-11-15T15:33:04;99324.03;;;24.39;30.26
34370;BME280;20635;55.812;37.560;2022-11-15T15:35:33;99323.19;;;24.39;30.30
34370;BME280;20635;55.812;37.560;2022-11-15T15:38:00;99326.84;;;24.39;30.37
34370;BME280;20635;55.812;37.560;2022-11-15T15:40:28;99316.75;;;24.38;30.37
34370;BME280;20635;55.812;37.560;2022-11-15T15:42:55;99309.19;;;24.39;30.43
34370;BME280;20635;55.812;37.560;2022-11-15T15:45:25;99307.22;;;24.39;30.31
34370;BME280;20635;55.812;37.560;2022-11-15T15:47:52;99310.03;;;24.39;30.46
34370;BME280;20635;55.812;37.560;2022-11-15T15:52:49;99297.97;;;24.39;30.24
34370;BME280;20635;55.812;37.560;2022-11-15T15:55:15;99298.81;;;24.39;30.61
34370;BME280;20635;55.812;37.560;2022-11-15T15:57:43;99291.56;;;24.38;30.37
34370;BME280;20635;55.812;37.560;2022-11-15T16:00:10;99288.75;;;24.38;30.46
34370;BME280;20635;55.812;37.560;2022-11-15T16:02:39;99291.56;;;24.38;30.19
34370;BME280;20635;55.812;37.560;2022-11-15T16:05:06;99288.75;;;24.38;30.22
34370;BME280;20635;55.812;37.560;2022-11-15T16:07:33;99284.81;;;24.39;30.42
34370;BME280;20635;55.812;37.560;2022-11-15T16:09:59;99283.97;;;24.39;30.35
34370;BME280;20635;55.812;37.560;2022-11-15T16:12:33;99279.22;;;24.39;30.40
34370;BME280;20635;55.812;37.560;2022-11-15T16:15:01;99282.03;;;24.39;30.18
34370;BME280;20635;55.812;37.560;2022-11-15T16:17:32;99276.41;;;24.39;30.43
34370;BME280;20635;55.812;37.560;2022-11-15T16:19:59;99278.06;;;24.40;30.46
34370;BME280;20635;55.812;37.560;2022-11-15T16:22:25;99277.25;;;24.40;30.22